Dorchester, Wisconsin
Current Conditions -  °F | °C
As of 7:15 AM on Friday 24 Oct 2014 (Local Time) from KMDZ Reporting Station
Moderate Fog Moderate Fog  
Wind Chill: 39°   Ceiling: 200
Heat Index: 43°   Visibility: 0.25mi
Dew Point: 43°   Wind: 6mph
Humidity: 100%   Direction: 170°S
Pressure: 29.98"   Gusts: NA
Location:  45°N, 90.34°W
Report Text: KMDZ 241215Z AUTO 17005KT 1/4SM FG OVC002 06/06 A2998 RMK AO2 T00610061
Loading
Personal Weather Stations






























Interactive Weather Map
Tropical Storm Tracking
New forecast layout! Learn more

10-Day Weather Forecast

Advertisements
Track Severe Weather on mobile